createdAt,value
2016-11-21T00:00:37.740Z,0
2016-11-21T00:01:18.427Z,0
2016-11-21T00:01:59.203Z,0
2016-11-21T00:02:39.904Z,0
2016-11-21T00:03:20.654Z,0
2016-11-21T00:04:01.943Z,0
2016-11-21T00:04:42.747Z,0
2016-11-21T00:05:23.463Z,0
2016-11-21T00:06:04.243Z,0
2016-11-21T00:06:45.003Z,0
2016-11-21T00:07:25.725Z,0
2016-11-21T00:08:06.491Z,0
2016-11-21T00:08:47.307Z,0
2016-11-21T00:09:28.046Z,0
2016-11-21T00:10:08.875Z,0
2016-11-21T00:10:49.609Z,0
2016-11-21T00:11:30.331Z,0
2016-11-21T00:12:10.988Z,0
2016-11-21T00:12:51.693Z,0
2016-11-21T00:13:32.314Z,0
2016-11-21T00:14:13.080Z,0
2016-11-21T00:14:53.830Z,0
2016-11-21T00:15:34.502Z,0
2016-11-21T00:16:15.149Z,0
2016-11-21T00:16:55.814Z,0
2016-11-21T00:17:36.531Z,0
2016-11-21T00:18:17.276Z,0
2016-11-21T00:18:58.013Z,0
2016-11-21T00:19:38.993Z,0
2016-11-21T00:20:19.769Z,0
2016-11-21T00:21:00.498Z,0
2016-11-21T00:21:41.216Z,0
2016-11-21T00:22:21.912Z,0
2016-11-21T00:23:02.600Z,0
2016-11-21T00:23:43.410Z,0
2016-11-21T00:24:24.162Z,0
2016-11-21T00:25:04.866Z,0
2016-11-21T00:25:45.631Z,0
2016-11-21T00:26:26.416Z,0
2016-11-21T00:27:07.080Z,0
2016-11-21T00:27:47.830Z,0
2016-11-21T00:28:28.590Z,0
2016-11-21T00:29:09.285Z,0
2016-11-21T00:29:49.961Z,0
2016-11-21T00:30:30.648Z,0
2016-11-21T00:31:11.266Z,0
2016-11-21T00:31:51.996Z,0
2016-11-21T00:32:32.653Z,0
2016-11-21T00:33:13.391Z,0
2016-11-21T00:33:54.101Z,0
2016-11-21T00:34:34.773Z,0
2016-11-21T00:35:15.514Z,0
2016-11-21T00:35:56.319Z,0
2016-11-21T00:36:37.043Z,0
2016-11-21T00:37:17.847Z,0
2016-11-21T00:37:58.597Z,0
2016-11-21T00:38:39.294Z,0
2016-11-21T00:39:20.089Z,0
2016-11-21T00:40:00.821Z,0
2016-11-21T00:40:41.533Z,0
2016-11-21T00:41:22.320Z,0
2016-11-21T00:42:02.960Z,0
2016-11-21T00:42:43.679Z,0
2016-11-21T00:43:24.380Z,0
2016-11-21T00:44:05.143Z,0
2016-11-21T00:44:45.822Z,0
2016-11-21T00:45:26.667Z,0
2016-11-21T00:46:07.309Z,0
2016-11-21T00:46:47.990Z,0
2016-11-21T00:47:28.769Z,0
2016-11-21T00:48:09.527Z,0
2016-11-21T00:48:50.232Z,0
2016-11-21T00:49:30.883Z,0
2016-11-21T00:50:11.570Z,0
2016-11-21T00:50:52.450Z,0
2016-11-21T00:51:33.228Z,0
2016-11-21T00:52:13.944Z,0
2016-11-21T00:52:54.608Z,0
2016-11-21T00:53:35.292Z,0
2016-11-21T00:54:15.935Z,0
2016-11-21T00:54:56.602Z,0
2016-11-21T00:55:37.256Z,0
2016-11-21T00:56:17.932Z,0
2016-11-21T00:56:58.621Z,0
2016-11-21T00:57:39.327Z,0
2016-11-21T00:58:19.984Z,0
2016-11-21T00:59:00.620Z,0
2016-11-21T00:59:41.283Z,0
2016-11-21T01:00:21.964Z,0
2016-11-21T01:01:02.700Z,0
2016-11-21T01:01:43.458Z,0
2016-11-21T01:02:24.311Z,0
2016-11-21T01:03:05.036Z,0
2016-11-21T01:03:45.699Z,0
2016-11-21T01:04:26.457Z,0
2016-11-21T01:05:07.166Z,0
2016-11-21T01:05:47.935Z,0
2016-11-21T01:06:28.695Z,0
2016-11-21T01:07:09.423Z,0
2016-11-21T01:07:50.178Z,0
2016-11-21T01:08:30.909Z,0
2016-11-21T01:09:11.632Z,0
2016-11-21T01:09:52.389Z,0
2016-11-21T01:10:33.082Z,0
2016-11-21T01:11:13.866Z,0
2016-11-21T01:11:54.595Z,0
2016-11-21T01:12:35.379Z,0
2016-11-21T01:13:16.083Z,0
2016-11-21T01:13:56.781Z,0
2016-11-21T01:14:37.547Z,0
2016-11-21T01:15:18.262Z,0
2016-11-21T01:15:58.892Z,0
2016-11-21T01:16:39.778Z,0
2016-11-21T01:17:20.497Z,0
2016-11-21T01:18:01.197Z,0
2016-11-21T01:18:41.952Z,0
2016-11-21T01:19:22.625Z,0
2016-11-21T01:20:03.394Z,0
2016-11-21T01:20:44.190Z,0
2016-11-21T01:21:25.001Z,0
2016-11-21T01:22:05.738Z,0
2016-11-21T01:22:46.407Z,0
2016-11-21T01:23:27.073Z,0
2016-11-21T01:24:07.849Z,0
2016-11-21T01:24:48.623Z,0
2016-11-21T01:25:29.337Z,0
2016-11-21T01:26:10.089Z,0
2016-11-21T01:26:50.715Z,0
2016-11-21T01:27:31.411Z,0
2016-11-21T01:28:12.147Z,0
2016-11-21T01:28:52.907Z,0
2016-11-21T01:29:33.631Z,0
2016-11-21T01:30:14.386Z,0
2016-11-21T01:30:55.047Z,0
2016-11-21T01:31:35.731Z,0
2016-11-21T01:32:16.473Z,0
2016-11-21T01:32:57.189Z,0
2016-11-21T01:33:38.057Z,0
2016-11-21T01:34:18.774Z,0
2016-11-21T01:34:59.518Z,0
2016-11-21T01:35:40.225Z,0
2016-11-21T01:36:21.012Z,0
2016-11-21T01:37:01.704Z,0
2016-11-21T01:37:42.666Z,0
2016-11-21T01:38:23.329Z,0
2016-11-21T01:39:04.193Z,0
2016-11-21T01:39:44.786Z,0
2016-11-21T01:40:25.448Z,0
2016-11-21T01:41:06.207Z,0
2016-11-21T01:41:46.905Z,0
2016-11-21T01:42:27.612Z,0
2016-11-21T01:43:08.307Z,0
2016-11-21T01:43:48.944Z,0
2016-11-21T01:44:29.792Z,0
2016-11-21T01:45:10.573Z,0
2016-11-21T01:45:51.471Z,0
2016-11-21T01:46:32.109Z,0
2016-11-21T01:47:12.852Z,0
2016-11-21T01:47:53.510Z,0
2016-11-21T01:48:34.230Z,0
2016-11-21T01:49:14.867Z,0
2016-11-21T01:49:55.618Z,0
2016-11-21T01:50:36.326Z,0
2016-11-21T01:51:17.022Z,0
2016-11-21T01:51:57.743Z,0
2016-11-21T01:52:38.504Z,0
2016-11-21T01:53:19.212Z,0
2016-11-21T01:53:59.826Z,0
2016-11-21T01:54:40.414Z,0
2016-11-21T01:55:21.069Z,0
2016-11-21T01:56:01.730Z,0
2016-11-21T01:56:42.500Z,0
2016-11-21T01:57:23.098Z,0
2016-11-21T01:58:03.891Z,0
2016-11-21T01:58:44.654Z,0
2016-11-21T01:59:25.435Z,0
2016-11-21T02:00:06.157Z,0
2016-11-21T02:00:46.924Z,0
2016-11-21T02:01:27.625Z,0
2016-11-21T02:02:08.286Z,0
2016-11-21T02:02:49.014Z,0
2016-11-21T02:03:29.673Z,0
2016-11-21T02:04:10.364Z,0
2016-11-21T02:04:51.152Z,0
2016-11-21T02:05:32.050Z,0
2016-11-21T02:06:12.736Z,0
2016-11-21T02:06:53.463Z,0
2016-11-21T02:07:34.168Z,0
2016-11-21T02:08:14.875Z,0
2016-11-21T02:08:55.701Z,0
2016-11-21T02:09:36.395Z,0
2016-11-21T02:10:17.135Z,0
2016-11-21T02:10:57.817Z,0
2016-11-21T02:11:38.494Z,0
2016-11-21T02:12:19.194Z,0
2016-11-21T02:12:59.951Z,0
2016-11-21T02:13:40.662Z,0
2016-11-21T02:14:21.369Z,0
2016-11-21T02:15:02.165Z,0
2016-11-21T02:15:42.943Z,0
2016-11-21T02:16:23.728Z,0
2016-11-21T02:17:04.518Z,0
2016-11-21T02:17:45.243Z,0
2016-11-21T02:18:25.943Z,0
2016-11-21T02:19:06.592Z,0
2016-11-21T02:19:47.299Z,0
2016-11-21T02:20:27.989Z,0
2016-11-21T02:21:08.807Z,0
2016-11-21T02:21:49.530Z,0
2016-11-21T02:22:30.232Z,0
2016-11-21T02:23:10.988Z,0
2016-11-21T02:23:51.642Z,0
2016-11-21T02:24:32.352Z,0
2016-11-21T02:25:13.084Z,0
2016-11-21T02:25:53.706Z,0
2016-11-21T02:26:34.499Z,0
2016-11-21T02:27:15.200Z,0
2016-11-21T02:27:55.947Z,0
2016-11-21T02:28:36.784Z,0
2016-11-21T02:29:17.538Z,0
2016-11-21T02:29:58.227Z,0
2016-11-21T02:30:38.912Z,0
2016-11-21T02:31:19.573Z,0
2016-11-21T02:32:00.354Z,0
2016-11-21T02:32:41.912Z,0
2016-11-21T02:33:22.600Z,0
2016-11-21T02:34:03.272Z,0
2016-11-21T02:34:44.063Z,0
2016-11-21T02:35:24.768Z,0
2016-11-21T02:36:05.459Z,0
2016-11-21T02:36:46.063Z,0
2016-11-21T02:37:26.722Z,0
2016-11-21T02:38:07.412Z,0
2016-11-21T02:38:48.154Z,0
2016-11-21T02:39:28.806Z,0
2016-11-21T02:40:09.465Z,0
2016-11-21T02:40:50.695Z,0
2016-11-21T02:41:30.730Z,0
2016-11-21T02:42:11.319Z,0
2016-11-21T02:42:52.027Z,0
2016-11-21T02:43:32.763Z,0
2016-11-21T02:44:13.514Z,0
2016-11-21T02:44:54.451Z,0
2016-11-21T02:45:35.291Z,0
2016-11-21T02:46:16.007Z,0
2016-11-21T02:46:56.693Z,0
2016-11-21T02:47:37.427Z,0
2016-11-21T02:48:18.113Z,0
2016-11-21T02:48:59.707Z,0
2016-11-21T02:49:39.476Z,0
2016-11-21T02:50:20.166Z,0
2016-11-21T02:51:00.854Z,0
2016-11-21T02:51:41.657Z,0
2016-11-21T02:52:22.307Z,0
2016-11-21T02:53:03.001Z,0
2016-11-21T02:53:43.758Z,0
2016-11-21T02:54:24.570Z,0
2016-11-21T02:55:05.359Z,0
2016-11-21T02:55:46.143Z,0
2016-11-21T02:56:27.703Z,0
2016-11-21T02:57:09.199Z,0
2016-11-21T02:57:49.229Z,0
2016-11-21T02:58:29.944Z,0
2016-11-21T02:59:10.715Z,0
2016-11-21T02:59:51.488Z,0
2016-11-21T03:00:32.208Z,0
2016-11-21T03:01:12.952Z,0
2016-11-21T03:01:53.671Z,0
2016-11-21T03:02:34.405Z,0
2016-11-21T03:03:15.049Z,0
2016-11-21T03:03:55.802Z,0
2016-11-21T03:04:36.623Z,0
2016-11-21T03:05:17.327Z,0
2016-11-21T03:05:57.977Z,0
2016-11-21T03:06:38.789Z,0
2016-11-21T03:07:19.651Z,0
2016-11-21T03:08:00.405Z,0
2016-11-21T03:08:41.150Z,0
2016-11-21T03:09:21.881Z,0
2016-11-21T03:10:02.638Z,0
2016-11-21T03:10:43.285Z,0
2016-11-21T03:11:24.041Z,0
2016-11-21T03:12:04.740Z,0
2016-11-21T03:12:45.461Z,0
2016-11-21T03:13:27.705Z,0
2016-11-21T03:14:07.501Z,0
2016-11-21T03:14:48.200Z,0
2016-11-21T03:15:28.889Z,0
2016-11-21T03:16:09.657Z,0
2016-11-21T03:16:50.290Z,0
2016-11-21T03:17:30.997Z,0
2016-11-21T03:18:11.689Z,0
2016-11-21T03:18:52.407Z,0
2016-11-21T03:19:33.069Z,0
2016-11-21T03:20:13.931Z,0
2016-11-21T03:20:54.651Z,0
2016-11-21T03:21:35.342Z,0
2016-11-21T03:22:16.021Z,0
2016-11-21T03:22:56.804Z,0
2016-11-21T03:23:37.539Z,0
2016-11-21T03:24:18.263Z,0
2016-11-21T03:24:59.075Z,0
2016-11-21T03:25:40.508Z,0
2016-11-21T03:26:21.138Z,0
2016-11-21T03:27:01.934Z,0
2016-11-21T03:27:42.759Z,0
2016-11-21T03:28:23.506Z,0
2016-11-21T03:29:04.316Z,0
2016-11-21T03:29:45.074Z,0
2016-11-21T03:30:25.869Z,0
2016-11-21T03:31:06.634Z,0
2016-11-21T03:31:47.212Z,0
2016-11-21T03:32:27.822Z,0
2016-11-21T03:33:08.522Z,0
2016-11-21T03:33:49.227Z,0
2016-11-21T03:34:29.952Z,0
2016-11-21T03:35:10.852Z,0
2016-11-21T03:35:51.571Z,0
2016-11-21T03:36:32.216Z,0
2016-11-21T03:37:12.946Z,0
2016-11-21T03:37:53.669Z,0
2016-11-21T03:38:34.495Z,0
2016-11-21T03:39:15.205Z,0
2016-11-21T03:39:55.932Z,0
2016-11-21T03:40:36.736Z,0
2016-11-21T03:41:17.438Z,0
2016-11-21T03:41:58.098Z,0
2016-11-21T03:42:38.833Z,0
2016-11-21T03:43:19.503Z,0
2016-11-21T03:44:00.214Z,0
2016-11-21T03:44:40.865Z,0
2016-11-21T03:45:21.571Z,0
2016-11-21T03:46:02.801Z,0
2016-11-21T03:46:43.557Z,0
2016-11-21T03:47:24.212Z,0
2016-11-21T03:48:04.898Z,0
2016-11-21T03:48:45.611Z,0
2016-11-21T03:49:26.301Z,0
2016-11-21T03:50:07.089Z,0
2016-11-21T03:50:47.760Z,0
2016-11-21T03:51:28.576Z,0
2016-11-21T03:52:09.427Z,0
2016-11-21T03:52:50.217Z,0
2016-11-21T03:53:30.889Z,0
2016-11-21T03:54:11.595Z,0
2016-11-21T03:54:52.247Z,0
2016-11-21T03:55:33.011Z,0
2016-11-21T03:56:13.661Z,0
2016-11-21T03:58:47.075Z,0
2016-11-21T03:59:27.753Z,0
2016-11-21T04:00:08.423Z,0
2016-11-21T04:00:49.090Z,0
2016-11-21T04:01:29.662Z,0
2016-11-21T04:02:10.321Z,0
2016-11-21T04:02:50.958Z,0
2016-11-21T04:03:31.591Z,0
2016-11-21T04:04:12.288Z,0
2016-11-21T04:04:52.897Z,0
2016-11-21T04:05:33.665Z,0
2016-11-21T04:06:14.449Z,0
2016-11-21T04:06:55.322Z,0
2016-11-21T04:07:36.042Z,0
2016-11-21T04:08:16.711Z,0
2016-11-21T04:08:57.282Z,0
2016-11-21T04:09:37.985Z,0
2016-11-21T04:10:18.716Z,0
2016-11-21T04:10:59.523Z,0
2016-11-21T04:11:40.206Z,0
2016-11-21T04:12:20.901Z,0
2016-11-21T04:13:01.822Z,0
2016-11-21T04:13:42.575Z,0
2016-11-21T04:14:23.429Z,0
2016-11-21T04:15:04.011Z,0
2016-11-21T04:15:44.682Z,0
2016-11-21T04:16:25.329Z,0
2016-11-21T04:17:06.251Z,0
2016-11-21T04:17:46.962Z,0
2016-11-21T04:18:27.614Z,0
2016-11-21T04:19:08.310Z,0
2016-11-21T04:19:49.082Z,0
2016-11-21T04:20:30.454Z,0
2016-11-21T04:21:11.180Z,0
2016-11-21T04:21:51.924Z,0
2016-11-21T04:22:32.645Z,0
2016-11-21T04:23:13.316Z,0
2016-11-21T04:23:54.109Z,0
2016-11-21T04:24:34.711Z,0
2016-11-21T04:25:15.383Z,0
2016-11-21T04:25:56.092Z,0
2016-11-21T04:26:36.751Z,0
2016-11-21T04:27:17.418Z,0
2016-11-21T04:27:58.178Z,0
2016-11-21T04:28:38.902Z,0
2016-11-21T04:29:19.657Z,0
2016-11-21T04:30:00.353Z,0
2016-11-21T04:30:41.039Z,0
2016-11-21T04:31:21.624Z,0
2016-11-21T04:32:02.320Z,0
2016-11-21T04:32:43.039Z,0
2016-11-21T04:33:23.842Z,0
2016-11-21T04:34:04.505Z,0
2016-11-21T04:34:45.149Z,0
2016-11-21T04:35:25.845Z,0
2016-11-21T04:36:06.504Z,0
2016-11-21T04:36:47.197Z,0
2016-11-21T04:37:27.852Z,0
2016-11-21T04:38:08.619Z,0
2016-11-21T04:38:49.309Z,0
2016-11-21T04:39:29.994Z,0
2016-11-21T04:40:10.725Z,0
2016-11-21T04:40:51.447Z,0
2016-11-21T04:41:32.141Z,0
2016-11-21T04:42:12.849Z,0
2016-11-21T04:42:53.517Z,0
2016-11-21T04:43:34.154Z,0
2016-11-21T04:44:14.823Z,0
2016-11-21T04:44:55.486Z,0
2016-11-21T04:45:36.144Z,0
2016-11-21T04:46:16.741Z,0
2016-11-21T04:46:57.417Z,0
2016-11-21T04:47:38.163Z,0
2016-11-21T04:48:18.857Z,0
2016-11-21T04:48:59.469Z,0
2016-11-21T04:49:40.211Z,0
2016-11-21T04:50:20.842Z,0
2016-11-21T04:51:01.559Z,0
2016-11-21T04:51:42.316Z,0
2016-11-21T04:52:23.058Z,0
2016-11-21T04:53:03.862Z,0
2016-11-21T04:53:44.551Z,0
2016-11-21T04:54:25.379Z,0
2016-11-21T04:55:06.116Z,0
2016-11-21T04:55:46.833Z,0
2016-11-21T04:56:27.560Z,0
2016-11-21T04:57:08.212Z,0
2016-11-21T04:57:48.916Z,0
2016-11-21T04:58:29.703Z,0
2016-11-21T04:59:10.400Z,0
2016-11-21T04:59:51.095Z,0
2016-11-21T05:00:31.862Z,0
2016-11-21T05:01:12.494Z,0
2016-11-21T05:01:53.188Z,0
2016-11-21T05:02:33.860Z,0
2016-11-21T05:03:14.580Z,0
2016-11-21T05:03:55.329Z,0
2016-11-21T05:04:36.207Z,0
2016-11-21T05:05:16.861Z,0
2016-11-21T05:05:57.508Z,0
2016-11-21T05:06:38.172Z,0
2016-11-21T05:07:18.893Z,0
2016-11-21T05:07:59.702Z,0
2016-11-21T05:08:40.505Z,0
2016-11-21T05:09:21.193Z,0
2016-11-21T05:10:01.940Z,0
2016-11-21T05:10:42.603Z,0
2016-11-21T05:11:23.295Z,0
2016-11-21T05:12:04.033Z,0
2016-11-21T05:12:44.644Z,0
2016-11-21T05:13:25.291Z,0
2016-11-21T05:14:05.937Z,0
2016-11-21T05:14:46.732Z,0
2016-11-21T05:15:27.537Z,0
2016-11-21T05:16:08.857Z,0
2016-11-21T05:16:49.588Z,0
2016-11-21T05:17:30.307Z,0
2016-11-21T05:18:10.996Z,0
2016-11-21T05:18:51.684Z,0
2016-11-21T05:19:32.417Z,0
2016-11-21T05:20:13.068Z,0
2016-11-21T05:20:53.842Z,0
2016-11-21T05:21:34.500Z,0
2016-11-21T05:22:15.291Z,0
2016-11-21T05:22:55.917Z,0
2016-11-21T05:23:36.661Z,0
2016-11-21T05:24:17.349Z,0
2016-11-21T05:24:58.086Z,0
2016-11-21T05:25:38.986Z,0
2016-11-21T05:26:20.632Z,0
2016-11-21T05:27:01.306Z,0
2016-11-21T05:27:41.988Z,0
2016-11-21T05:28:22.690Z,0
2016-11-21T05:29:03.329Z,0
2016-11-21T05:29:44.015Z,0
2016-11-21T05:30:24.806Z,0
2016-11-21T05:31:05.544Z,0
2016-11-21T05:31:46.278Z,0
2016-11-21T05:32:27.005Z,0
2016-11-21T05:33:07.693Z,0
2016-11-21T05:33:48.465Z,0
2016-11-21T05:34:29.213Z,0
2016-11-21T05:35:09.885Z,0
2016-11-21T05:35:50.550Z,0
2016-11-21T05:36:31.214Z,0
2016-11-21T05:37:11.913Z,0
2016-11-21T05:37:52.636Z,0
2016-11-21T05:38:33.212Z,0
2016-11-21T05:39:13.910Z,0
2016-11-21T05:39:54.562Z,0
2016-11-21T05:40:35.239Z,0
2016-11-21T05:41:15.922Z,0
2016-11-21T05:41:56.747Z,0
2016-11-21T05:42:37.547Z,0
2016-11-21T05:43:18.257Z,0
2016-11-21T05:43:59.008Z,0
2016-11-21T05:44:39.633Z,0
2016-11-21T05:45:20.450Z,0
2016-11-21T05:46:01.185Z,0
2016-11-21T05:46:41.877Z,0
2016-11-21T05:47:22.616Z,0
2016-11-21T05:48:03.244Z,0
2016-11-21T05:48:43.985Z,0
2016-11-21T05:49:24.696Z,0
2016-11-21T05:50:05.368Z,0
2016-11-21T05:50:46.009Z,0
2016-11-21T05:51:26.799Z,0
2016-11-21T05:52:07.504Z,0
2016-11-21T05:52:48.221Z,0
2016-11-21T05:53:28.902Z,0
2016-11-21T05:54:09.593Z,0
2016-11-21T05:54:50.337Z,0
2016-11-21T05:55:30.955Z,0
2016-11-21T05:56:11.661Z,0
2016-11-21T05:56:52.389Z,0
2016-11-21T05:57:33.143Z,0
2016-11-21T05:58:14.115Z,0
2016-11-21T05:58:54.852Z,0
2016-11-21T05:59:35.567Z,0
2016-11-21T06:00:16.411Z,0
2016-11-21T06:00:57.068Z,0
2016-11-21T06:01:37.706Z,0
2016-11-21T06:02:18.491Z,0
2016-11-21T06:02:59.368Z,0
2016-11-21T06:03:40.188Z,0
2016-11-21T06:04:20.970Z,0
2016-11-21T06:05:01.734Z,0
2016-11-21T06:05:42.446Z,0
2016-11-21T06:06:23.226Z,0
2016-11-21T06:07:03.921Z,0
2016-11-21T06:07:44.715Z,0
2016-11-21T06:08:25.445Z,0
2016-11-21T06:09:06.180Z,0
2016-11-21T06:09:46.956Z,0
2016-11-21T06:10:27.707Z,0
2016-11-21T06:11:08.356Z,0
2016-11-21T06:11:49.140Z,0
2016-11-21T06:12:29.913Z,0
2016-11-21T06:13:10.699Z,0
2016-11-21T06:13:51.391Z,0
2016-11-21T06:14:32.065Z,0
2016-11-21T06:15:12.910Z,0
2016-11-21T06:15:53.565Z,0
2016-11-21T06:16:34.314Z,0
2016-11-21T06:17:15.024Z,0
2016-11-21T06:17:55.731Z,0
2016-11-21T06:18:36.623Z,0
2016-11-21T06:19:17.226Z,0
2016-11-21T06:19:57.920Z,0
2016-11-21T06:20:38.767Z,0
2016-11-21T06:21:19.436Z,0
2016-11-21T06:22:00.104Z,0
2016-11-21T06:22:40.861Z,0
2016-11-21T06:23:21.732Z,0
2016-11-21T06:24:02.528Z,0
2016-11-21T06:24:43.228Z,0
2016-11-21T06:25:23.967Z,0
2016-11-21T06:26:04.643Z,0
2016-11-21T06:26:45.517Z,0
2016-11-21T06:27:26.151Z,0
2016-11-21T06:28:06.781Z,0
2016-11-21T06:28:47.439Z,0
2016-11-21T06:29:28.195Z,0
2016-11-21T06:30:08.977Z,0
2016-11-21T06:30:49.785Z,0
2016-11-21T06:31:30.549Z,0
2016-11-21T06:32:11.291Z,0
2016-11-21T06:32:52.029Z,0
2016-11-21T06:33:32.727Z,0
2016-11-21T06:34:13.428Z,0
2016-11-21T06:34:54.208Z,0
2016-11-21T06:35:34.937Z,0
2016-11-21T06:36:16.465Z,0
2016-11-21T06:36:57.299Z,0
2016-11-21T06:37:38.013Z,0
2016-11-21T06:38:18.688Z,0
2016-11-21T06:38:59.401Z,0
2016-11-21T06:39:40.101Z,0
2016-11-21T06:40:20.773Z,0
2016-11-21T06:41:01.486Z,0
2016-11-21T06:41:42.286Z,0
2016-11-21T06:42:23.043Z,0
2016-11-21T06:43:03.851Z,0
2016-11-21T06:43:44.555Z,0
2016-11-21T06:44:25.263Z,0
2016-11-21T06:45:05.960Z,0
2016-11-21T06:45:46.584Z,0
2016-11-21T06:46:28.108Z,0
2016-11-21T06:47:08.803Z,0
2016-11-21T06:47:49.517Z,0
2016-11-21T06:48:30.316Z,0
2016-11-21T06:49:10.995Z,0
2016-11-21T06:49:51.689Z,0
2016-11-21T06:50:32.406Z,0
2016-11-21T06:51:13.123Z,0
2016-11-21T06:51:54.033Z,0
2016-11-21T06:52:34.704Z,0
2016-11-21T06:53:15.344Z,0
2016-11-21T06:53:56.143Z,0
2016-11-21T06:54:36.871Z,0
2016-11-21T06:55:17.550Z,0
2016-11-21T06:55:58.240Z,0
2016-11-21T06:56:38.918Z,0
2016-11-21T06:57:19.662Z,0
2016-11-21T06:58:00.482Z,0
2016-11-21T06:58:41.203Z,0
2016-11-21T06:59:21.830Z,0
2016-11-21T07:00:02.593Z,0
2016-11-21T07:00:43.383Z,0
2016-11-21T07:01:24.032Z,0
2016-11-21T07:02:04.696Z,0
2016-11-21T07:02:45.310Z,0
2016-11-21T07:03:25.994Z,0
2016-11-21T07:04:06.906Z,0
2016-11-21T07:04:47.662Z,0
2016-11-21T07:05:28.432Z,0
2016-11-21T07:06:09.143Z,0
2016-11-21T07:06:49.819Z,0
2016-11-21T07:07:30.587Z,0
2016-11-21T07:08:11.473Z,5
2016-11-21T07:08:52.284Z,5
2016-11-21T07:09:32.911Z,5
2016-11-21T07:10:13.599Z,5
2016-11-21T07:10:54.213Z,5
2016-11-21T07:11:34.939Z,5
2016-11-21T07:12:15.646Z,5
2016-11-21T07:12:56.295Z,5
2016-11-21T07:13:37.001Z,5
2016-11-21T07:14:17.584Z,5
2016-11-21T07:14:58.240Z,5
2016-11-21T07:15:39.056Z,5
2016-11-21T07:16:19.753Z,5
2016-11-21T07:17:00.399Z,5
2016-11-21T07:17:41.069Z,10
2016-11-21T07:18:21.706Z,10
2016-11-21T07:19:02.596Z,10
2016-11-21T07:19:43.272Z,10
2016-11-21T07:20:24.076Z,10
2016-11-21T07:21:04.844Z,10
2016-11-21T07:21:45.480Z,5
2016-11-21T07:22:26.245Z,5
2016-11-21T07:23:07.098Z,5
2016-11-21T07:23:47.807Z,10
2016-11-21T07:24:28.524Z,10
2016-11-21T07:25:09.219Z,10
2016-11-21T07:25:49.917Z,10
2016-11-21T07:26:30.694Z,10
2016-11-21T07:27:11.394Z,10
2016-11-21T07:27:52.200Z,10
2016-11-21T07:28:32.943Z,10
2016-11-21T07:29:13.638Z,10
2016-11-21T07:29:54.263Z,10
2016-11-21T07:30:35.021Z,10
2016-11-21T07:31:16.489Z,10
2016-11-21T07:31:57.274Z,10
2016-11-21T07:32:38.057Z,10
2016-11-21T07:33:18.852Z,15
2016-11-21T07:33:59.677Z,15
2016-11-21T07:34:40.421Z,15
2016-11-21T07:35:21.070Z,15
2016-11-21T07:36:01.739Z,15
2016-11-21T07:36:42.545Z,15
2016-11-21T07:37:23.216Z,15
2016-11-21T07:38:03.974Z,15
2016-11-21T07:38:44.690Z,15
2016-11-21T07:39:25.439Z,20
2016-11-21T07:40:06.147Z,20
2016-11-21T07:40:46.859Z,20
2016-11-21T07:41:27.646Z,20
2016-11-21T07:42:08.407Z,20
2016-11-21T07:42:49.149Z,25
2016-11-21T07:43:29.881Z,25
2016-11-21T07:44:10.657Z,25
2016-11-21T07:44:51.430Z,20
2016-11-21T07:45:32.191Z,20
2016-11-21T07:46:12.922Z,20
2016-11-21T07:46:53.589Z,20
2016-11-21T07:47:34.291Z,20
2016-11-21T07:48:15.017Z,20
2016-11-21T07:48:55.748Z,20
2016-11-21T07:49:36.657Z,15
2016-11-21T07:50:17.350Z,15
2016-11-21T07:50:58.155Z,15
2016-11-21T07:51:38.836Z,15
2016-11-21T07:52:19.708Z,15
2016-11-21T07:53:00.479Z,15
2016-11-21T07:53:41.211Z,15
2016-11-21T07:54:21.911Z,15
2016-11-21T07:55:02.660Z,15
2016-11-21T07:55:43.344Z,15
2016-11-21T07:56:24.058Z,15
2016-11-21T07:57:04.800Z,15
2016-11-21T07:57:45.476Z,15
2016-11-21T07:58:26.221Z,15
2016-11-21T07:59:06.959Z,15
2016-11-21T07:59:47.678Z,20
2016-11-21T08:00:28.390Z,20
2016-11-21T08:01:09.065Z,20
2016-11-21T08:01:49.743Z,20
2016-11-21T10:21:03.436Z,55
2016-11-21T10:21:44.072Z,55
2016-11-21T10:22:25.506Z,60
2016-11-21T10:23:06.142Z,60
2016-11-21T10:23:46.832Z,60
2016-11-21T10:24:28.183Z,60
2016-11-21T10:25:08.172Z,60
2016-11-21T10:25:48.782Z,65
2016-11-21T10:26:29.418Z,70
2016-11-21T10:27:10.163Z,80
2016-11-21T10:27:50.780Z,75
2016-11-21T10:28:31.452Z,70
2016-11-21T10:29:12.171Z,70
2016-11-21T10:29:52.811Z,60
2016-11-21T10:30:33.416Z,60
2016-11-21T10:31:14.076Z,60
2016-11-21T10:31:54.843Z,60
2016-11-21T10:32:35.447Z,65
2016-11-21T10:33:16.027Z,65
2016-11-21T10:33:56.663Z,65
2016-11-21T10:34:37.299Z,60
2016-11-21T10:35:17.972Z,60
2016-11-21T10:35:58.733Z,55
2016-11-21T10:36:39.318Z,50
2016-11-21T10:37:19.911Z,55
2016-11-21T10:38:00.451Z,55
2016-11-21T10:38:41.314Z,55
2016-11-21T10:39:21.935Z,55
2016-11-21T10:40:03.179Z,60
2016-11-21T10:40:43.278Z,60
2016-11-21T10:41:24.685Z,50
2016-11-21T10:42:04.564Z,60
2016-11-21T10:42:45.203Z,70
2016-11-21T10:43:25.882Z,65
2016-11-21T10:44:06.632Z,65
2016-11-21T10:44:47.326Z,65
2016-11-21T10:45:27.977Z,65
2016-11-21T10:46:08.666Z,65
2016-11-21T10:46:49.357Z,70
2016-11-21T10:47:30.016Z,70
2016-11-21T10:48:10.619Z,65
2016-11-21T10:48:51.226Z,60
2016-11-21T10:49:32.150Z,60
2016-11-21T10:50:12.825Z,55
2016-11-21T10:50:53.642Z,55
2016-11-21T10:51:34.438Z,55
2016-11-21T10:52:15.077Z,65
2016-11-21T10:52:55.745Z,75
2016-11-21T10:53:36.510Z,75
2016-11-21T10:54:17.178Z,80
2016-11-21T10:54:57.793Z,85
2016-11-21T10:55:38.493Z,80
2016-11-21T10:56:19.095Z,80
2016-11-21T10:56:59.723Z,80
2016-11-21T10:57:40.359Z,80
2016-11-21T10:58:21.029Z,75
2016-11-21T10:59:02.679Z,75
2016-11-21T10:59:42.166Z,80
2016-11-21T11:00:22.756Z,85
2016-11-21T11:01:03.468Z,85
2016-11-21T11:01:44.155Z,90
2016-11-21T11:02:24.693Z,90
2016-11-21T11:03:05.410Z,90
2016-11-21T11:03:46.071Z,80
2016-11-21T11:04:26.697Z,75
2016-11-21T11:05:07.313Z,75
2016-11-21T11:05:48.169Z,70
2016-11-21T11:06:28.830Z,65
2016-11-21T11:07:09.536Z,70
2016-11-21T11:07:50.246Z,75
2016-11-21T11:08:30.948Z,80
2016-11-21T11:09:11.614Z,85
2016-11-21T11:09:52.208Z,95
2016-11-21T11:10:32.850Z,95
2016-11-21T11:11:13.498Z,95
2016-11-21T11:11:54.052Z,95
2016-11-21T11:12:34.661Z,90
2016-11-21T11:13:15.298Z,90
2016-11-21T11:13:56.076Z,90
2016-11-21T11:14:36.798Z,90
2016-11-21T11:15:17.468Z,95
2016-11-21T11:15:58.049Z,105
2016-11-21T11:16:38.720Z,105
2016-11-21T11:17:19.305Z,110
2016-11-21T11:17:59.907Z,115
2016-11-21T11:18:40.490Z,120
2016-11-21T11:19:21.145Z,120
2016-11-21T11:20:01.783Z,125
2016-11-21T11:20:42.391Z,125
2016-11-21T11:21:22.993Z,115
2016-11-21T11:22:03.686Z,115
2016-11-21T11:22:44.331Z,125
2016-11-21T11:23:24.965Z,125
2016-11-21T11:24:05.594Z,115
2016-11-21T11:24:46.196Z,105
2016-11-21T11:25:26.868Z,95
2016-11-21T11:26:07.523Z,95
2016-11-21T11:26:48.171Z,100
2016-11-21T11:27:28.755Z,95
2016-11-21T11:28:09.347Z,85
2016-11-21T11:28:49.983Z,80
2016-11-21T11:29:30.594Z,85
2016-11-21T11:30:11.199Z,85
2016-11-21T11:30:51.852Z,85
2016-11-21T11:31:32.438Z,80
2016-11-21T11:32:13.022Z,80
2016-11-21T11:32:53.746Z,75
2016-11-21T11:33:34.370Z,75
2016-11-21T11:34:15.024Z,75
2016-11-21T11:34:55.686Z,75
2016-11-21T11:35:36.296Z,70
2016-11-21T11:36:16.922Z,65
2016-11-21T11:36:57.550Z,65
2016-11-21T11:37:38.130Z,75
2016-11-21T11:38:18.724Z,70
2016-11-21T11:38:59.357Z,70
2016-11-21T11:39:39.947Z,70
2016-11-21T11:40:20.524Z,80
2016-11-21T11:41:01.261Z,90
2016-11-21T11:41:41.899Z,95
2016-11-21T11:42:22.565Z,105
2016-11-21T11:43:03.324Z,110
2016-11-21T11:43:43.947Z,115
2016-11-21T11:44:24.783Z,115
2016-11-21T11:45:05.459Z,115
2016-11-21T11:45:46.137Z,115
2016-11-21T11:46:26.808Z,110
2016-11-21T11:47:07.426Z,115
2016-11-21T11:47:48.083Z,120
2016-11-21T11:48:28.681Z,125
2016-11-21T11:49:09.379Z,140
2016-11-21T11:49:50.017Z,150
2016-11-21T11:50:30.652Z,160
2016-11-21T11:51:11.257Z,170
2016-11-21T11:51:51.945Z,170
2016-11-21T11:52:32.668Z,170
2016-11-21T11:53:13.369Z,165
2016-11-21T11:53:54.012Z,165
2016-11-21T11:54:34.613Z,175
2016-11-21T11:55:15.290Z,185
2016-11-21T11:55:56.016Z,190
2016-11-21T11:56:36.718Z,195
2016-11-21T11:57:17.481Z,205
2016-11-21T11:57:58.096Z,220
2016-11-21T11:58:38.732Z,230
2016-11-21T11:59:19.288Z,235
2016-11-21T12:00:00.930Z,230
2016-11-21T12:00:41.624Z,230
2016-11-21T12:01:22.263Z,215
2016-11-21T12:02:02.898Z,210
2016-11-21T12:02:43.555Z,205
2016-11-21T12:03:24.251Z,200
2016-11-21T12:04:04.807Z,195
2016-11-21T12:04:45.384Z,200
2016-11-21T12:05:26.084Z,205
2016-11-21T12:06:06.780Z,215
2016-11-21T12:06:47.356Z,215
2016-11-21T12:07:27.953Z,210
2016-11-21T12:08:08.539Z,205
2016-11-21T12:08:49.141Z,200
2016-11-21T12:09:29.786Z,200
2016-11-21T12:10:10.463Z,195
2016-11-21T12:10:51.075Z,200
2016-11-21T12:11:31.715Z,195
2016-11-21T12:12:12.279Z,200
2016-11-21T12:12:52.879Z,195
2016-11-21T12:13:33.476Z,195
2016-11-21T12:14:14.143Z,205
2016-11-21T12:14:54.783Z,230
2016-11-21T12:15:35.409Z,245